Time;durP1;ratioP1;P1;durP2;ratioP2;P2;SDS_P1;SDS_P2;PMS_P1;PMS_P2;Temp;Humidity;BMP_temperature;BMP_pressure;BME280_temperature;BME280_humidity;BME280_pressure;Samples;Min_cycle;Max_cycle;Signal;HPM_P1;HPM_P2
2023/01/12 00:02:11;;;;;;;20.63;2.60;;;;;;;;;;5032681;28;20146;-77
2023/01/12 00:04:37;;;;;;;16.15;2.85;;;;;;;;;;5049767;28;20047;-78
2023/01/12 00:07:08;;;;;;;27.63;3.22;;;;;;;;;;5032385;28;20127;-77
2023/01/12 00:09:34;;;;;;;14.18;2.17;;;;;;;;;;5049429;28;20149;-78
2023/01/12 00:12:02;;;;;;;13.05;2.80;;;;;;;;;;5051809;28;20048;-79
2023/01/12 00:14:28;;;;;;;25.13;3.35;;;;;;;;;;5051259;28;20492;-79
2023/01/12 00:16:54;;;;;;;14.27;2.72;;;;;;;;;;5050029;28;20076;-79
2023/01/12 00:19:21;;;;;;;18.33;2.90;;;;;;;;;;5022544;28;20036;-79
2023/01/12 00:24:36;;;;;;;15.07;2.97;;;;;;;;;;5052574;28;20048;-79
2023/01/12 00:27:04;;;;;;;23.95;2.92;;;;;;;;;;5031323;28;20051;-79
2023/01/12 00:29:30;;;;;;;26.55;3.50;;;;;;;;;;5033028;28;20044;-79
2023/01/12 00:31:57;;;;;;;23.67;3.50;;;;;;;;;;5034066;28;20049;-79
2023/01/12 00:34:23;;;;;;;24.92;3.20;;;;;;;;;;5035262;28;20048;-79
2023/01/12 00:36:50;;;;;;;28.35;4.03;;;;;;;;;;5048762;28;20045;-78
2023/01/12 00:39:16;;;;;;;26.02;3.60;;;;;;;;;;5047670;28;20045;-79
2023/01/12 00:47:14;;;;;;;20.13;2.67;;;;;;;;;;5049915;28;20083;-79
2023/01/12 00:49:40;;;;;;;13.07;2.60;;;;;;;;;;5035782;28;20083;-79
2023/01/12 00:52:07;;;;;;;10.60;2.15;;;;;;;;;;5057942;28;20044;-78
2023/01/12 00:54:34;;;;;;;20.80;2.75;;;;;;;;;;5078248;28;20048;-79
2023/01/12 00:57:00;;;;;;;19.75;3.95;;;;;;;;;;5050042;28;20055;-79
2023/01/12 00:59:27;;;;;;;21.83;2.60;;;;;;;;;;5070185;28;20040;-79
2023/01/12 01:01:53;;;;;;;21.73;2.95;;;;;;;;;;5083997;28;20044;-79
2023/01/12 01:04:19;;;;;;;25.95;4.55;;;;;;;;;;5062683;28;20040;-79
2023/01/12 01:06:45;;;;;;;26.08;3.63;;;;;;;;;;5034543;28;20415;-79
2023/01/12 01:09:12;;;;;;;26.80;3.90;;;;;;;;;;5039136;28;20721;-79
2023/01/12 01:11:38;;;;;;;24.05;3.33;;;;;;;;;;5046225;28;20865;-79
2023/01/12 01:14:05;;;;;;;21.05;3.88;;;;;;;;;;5053907;28;20051;-79
2023/01/12 01:16:31;;;;;;;22.92;3.05;;;;;;;;;;5054218;28;20068;-79
2023/01/12 01:18:58;;;;;;;21.23;3.70;;;;;;;;;;5055184;28;20049;-79
2023/01/12 01:21:24;;;;;;;28.88;3.97;;;;;;;;;;5052687;28;20105;-80
2023/01/12 01:23:50;;;;;;;16.20;3.55;;;;;;;;;;5039597;28;20496;-80
2023/01/12 01:26:18;;;;;;;25.10;3.22;;;;;;;;;;5038703;28;20040;-80
2023/01/12 01:28:44;;;;;;;27.95;4.35;;;;;;;;;;5051042;28;20067;-80
2023/01/12 01:31:12;;;;;;;20.95;3.25;;;;;;;;;;5040280;28;20048;-80
2023/01/12 01:33:38;;;;;;;20.08;2.88;;;;;;;;;;5042326;28;20226;-79
2023/01/12 01:36:04;;;;;;;26.02;3.63;;;;;;;;;;5054556;28;20129;-79
2023/01/12 01:38:30;;;;;;;27.13;4.50;;;;;;;;;;5056550;28;20066;-78
2023/01/12 01:40:57;;;;;;;30.58;4.25;;;;;;;;;;5042632;28;20096;-79
2023/01/12 01:43:24;;;;;;;26.60;3.22;;;;;;;;;;5050712;28;20051;-79
2023/01/12 01:45:56;;;;;;;20.70;3.45;;;;;;;;;;5031854;28;20043;-80
2023/01/12 01:48:23;;;;;;;22.15;4.75;;;;;;;;;;5054602;28;20082;-80
2023/01/12 01:50:53;;;;;;;22.33;3.13;;;;;;;;;;5039485;28;20554;-81
2023/01/12 01:53:22;;;;;;;25.25;3.97;;;;;;;;;;5038865;28;20130;-81
2023/01/12 01:55:53;;;;;;;31.23;4.28;;;;;;;;;;5053438;28;20059;-80
2023/01/12 01:58:26;;;;;;;21.50;3.80;;;;;;;;;;5036043;28;20051;-80
2023/01/12 02:00:52;;;;;;;19.17;2.92;;;;;;;;;;5037978;28;21709;-81
2023/01/12 02:03:19;;;;;;;11.38;1.75;;;;;;;;;;5035057;28;20462;-80
2023/01/12 02:05:46;;;;;;;19.42;3.88;;;;;;;;;;5049462;28;20043;-80
2023/01/12 02:08:33;;;;;;;18.05;3.22;;;;;;;;;;5036215;28;20082;-80
2023/01/12 02:11:00;;;;;;;25.17;2.70;;;;;;;;;;5037671;28;20060;-80
2023/01/12 02:16:22;;;;;;;23.02;3.50;;;;;;;;;;5050778;28;20096;-79
2023/01/12 02:19:04;;;;;;;22.52;3.50;;;;;;;;;;5034358;28;20101;-80
2023/01/12 02:21:30;;;;;;;21.08;3.08;;;;;;;;;;5037124;28;20167;-80
2023/01/12 02:24:16;;;;;;;16.45;3.17;;;;;;;;;;5047464;28;20068;-79
2023/01/12 02:27:01;;;;;;;11.15;3.10;;;;;;;;;;5051975;28;20032;-80
2023/01/12 02:29:46;;;;;;;27.85;4.25;;;;;;;;;;5039090;28;20039;-80
2023/01/12 02:32:17;;;;;;;18.90;2.85;;;;;;;;;;5034487;28;20047;-80
2023/01/12 02:35:09;;;;;;;18.75;3.03;;;;;;;;;;5050435;28;20506;-80
2023/01/12 02:37:35;;;;;;;31.17;4.32;;;;;;;;;;5039195;28;20121;-80
2023/01/12 02:40:04;;;;;;;19.52;4.00;;;;;;;;;;5038070;28;20641;-81
2023/01/12 02:42:41;;;;;;;16.45;3.00;;;;;;;;;;5067534;28;20036;-80
2023/01/12 02:45:10;;;;;;;21.30;3.33;;;;;;;;;;5083461;28;21708;-80
2023/01/12 02:47:55;;;;;;;30.40;4.00;;;;;;;;;;5068993;28;20115;-80
2023/01/12 02:50:47;;;;;;;22.30;3.58;;;;;;;;;;5062448;28;20039;-80
2023/01/12 02:53:17;;;;;;;19.92;3.63;;;;;;;;;;5027662;28;20047;-80
2023/01/12 02:55:44;;;;;;;22.85;4.38;;;;;;;;;;5037595;28;20045;-81
2023/01/12 02:58:12;;;;;;;19.58;4.00;;;;;;;;;;5050803;28;20040;-81
2023/01/12 03:00:39;;;;;;;25.67;3.55;;;;;;;;;;5035778;28;20098;-80
2023/01/12 03:03:06;;;;;;;23.55;4.32;;;;;;;;;;5045952;28;20309;-80
2023/01/12 03:05:32;;;;;;;26.45;3.65;;;;;;;;;;5052068;28;20041;-80
2023/01/12 03:07:59;;;;;;;21.67;4.03;;;;;;;;;;5039325;28;20441;-80
2023/01/12 03:10:45;;;;;;;32.40;4.80;;;;;;;;;;5068175;27;20127;-80
2023/01/12 03:13:13;;;;;;;22.13;3.22;;;;;;;;;;5037561;28;21377;-80
2023/01/12 03:15:43;;;;;;;29.58;5.38;;;;;;;;;;5053378;28;20518;-81
2023/01/12 03:18:12;;;;;;;23.60;3.42;;;;;;;;;;5038530;28;20171;-80
2023/01/12 03:20:40;;;;;;;21.30;3.80;;;;;;;;;;5031968;28;20044;-80
2023/01/12 03:23:15;;;;;;;28.42;3.97;;;;;;;;;;5048379;28;20036;-80
2023/01/12 03:25:42;;;;;;;32.53;5.43;;;;;;;;;;5063934;28;20327;-79
2023/01/12 03:28:09;;;;;;;26.90;5.00;;;;;;;;;;5038147;28;20388;-80
2023/01/12 03:30:40;;;;;;;23.98;3.88;;;;;;;;;;5049243;28;20542;-79
2023/01/12 03:33:08;;;;;;;37.03;5.80;;;;;;;;;;5032907;28;20172;-80
2023/01/12 03:35:50;;;;;;;24.50;4.30;;;;;;;;;;5049969;28;20040;-80
2023/01/12 03:38:19;;;;;;;32.63;4.93;;;;;;;;;;5048182;28;20052;-80
2023/01/12 03:40:48;;;;;;;19.90;3.85;;;;;;;;;;5050026;28;20047;-80
2023/01/12 03:43:21;;;;;;;24.20;5.07;;;;;;;;;;5032166;28;20046;-80
2023/01/12 03:45:53;;;;;;;28.80;5.82;;;;;;;;;;5048947;28;20044;-80
2023/01/12 03:48:26;;;;;;;26.02;5.00;;;;;;;;;;5048822;28;20131;-80
2023/01/12 03:51:00;;;;;;;23.52;3.92;;;;;;;;;;5048548;28;21393;-80
2023/01/12 03:53:26;;;;;;;;;;;;;;;;;;5049833;28;20123;-80
2023/01/12 03:55:54;;;;;;;27.48;4.97;;;;;;;;;;5038424;28;19915;-80
2023/01/12 03:58:21;;;;;;;19.23;4.47;;;;;;;;;;5052393;28;20135;-80
2023/01/12 04:00:47;;;;;;;36.35;6.65;;;;;;;;;;5037874;28;20161;-79
2023/01/12 04:03:15;;;;;;;21.20;4.57;;;;;;;;;;5035737;28;20051;-80
2023/01/12 04:05:41;;;;;;;28.95;4.38;;;;;;;;;;5034126;28;20572;-79
2023/01/12 04:08:08;;;;;;;35.92;5.72;;;;;;;;;;5049559;28;20075;-79
2023/01/12 04:10:34;;;;;;;26.98;5.57;;;;;;;;;;5019848;28;20511;-79
2023/01/12 04:13:00;;;;;;;33.35;5.25;;;;;;;;;;5050669;28;20499;-80
2023/01/12 04:15:26;;;;;;;23.10;4.45;;;;;;;;;;5018936;28;21586;-79
2023/01/12 04:17:52;;;;;;;19.10;4.57;;;;;;;;;;5034910;28;20637;-79
2023/01/12 04:20:18;;;;;;;22.35;4.55;;;;;;;;;;5032341;28;20047;-79
2023/01/12 04:22:45;;;;;;;22.40;5.25;;;;;;;;;;5045744;28;20629;-79
2023/01/12 04:25:12;;;;;;;26.98;4.97;;;;;;;;;;5032518;28;20068;-79
2023/01/12 04:27:45;;;;;;;23.50;3.70;;;;;;;;;;5057962;28;20051;-79
2023/01/12 04:30:11;;;;;;;24.17;3.95;;;;;;;;;;5061282;28;20051;-79
2023/01/12 04:32:38;;;;;;;29.45;5.70;;;;;;;;;;5056861;28;20028;-79
2023/01/12 04:35:05;;;;;;;16.77;2.97;;;;;;;;;;5085825;28;20035;-80
2023/01/12 04:37:34;;;;;;;20.75;3.45;;;;;;;;;;5060725;28;20135;-79
2023/01/12 04:40:00;;;;;;;30.65;4.30;;;;;;;;;;5052284;28;20050;-79
2023/01/12 04:45:12;;;;;;;19.52;3.65;;;;;;;;;;5041615;28;20086;-79
2023/01/12 04:47:38;;;;;;;21.05;4.03;;;;;;;;;;5040918;28;20459;-79
2023/01/12 04:50:04;;;;;;;24.50;4.82;;;;;;;;;;5052785;28;20151;-79
2023/01/12 04:52:30;;;;;;;16.48;2.85;;;;;;;;;;5034397;28;20036;-78
2023/01/12 04:54:56;;;;;;;18.17;3.28;;;;;;;;;;5051629;28;20040;-79
2023/01/12 04:57:23;;;;;;;12.63;3.25;;;;;;;;;;5041669;28;20047;-79
2023/01/12 04:59:49;;;;;;;10.18;2.97;;;;;;;;;;5054538;28;20090;-80
2023/01/12 05:02:15;;;;;;;17.10;3.50;;;;;;;;;;5039760;28;20770;-80
2023/01/12 05:04:41;;;;;;;12.65;2.10;;;;;;;;;;5046964;28;20044;-80
2023/01/12 05:07:08;;;;;;;11.18;2.30;;;;;;;;;;5031510;28;20040;-81
2023/01/12 05:12:19;;;;;;;11.02;2.40;;;;;;;;;;5041818;28;20127;-82
2023/01/12 05:14:45;;;;;;;10.38;2.15;;;;;;;;;;5047842;28;20097;-83
2023/01/12 05:17:11;;;;;;;14.95;2.28;;;;;;;;;;5043711;28;20051;-82
2023/01/12 05:19:37;;;;;;;16.83;3.40;;;;;;;;;;5057412;28;20083;-83
2023/01/12 05:22:03;;;;;;;7.20;2.40;;;;;;;;;;5055359;28;20166;-82
2023/01/12 05:24:29;;;;;;;13.00;2.50;;;;;;;;;;5038420;28;20132;-82
2023/01/12 05:26:56;;;;;;;8.43;2.30;;;;;;;;;;5046125;28;20435;-83
2023/01/12 05:29:22;;;;;;;6.63;1.80;;;;;;;;;;5044062;28;20028;-83
2023/01/12 05:31:48;;;;;;;8.27;2.03;;;;;;;;;;5043974;28;20445;-83
2023/01/12 05:34:18;;;;;;;8.00;2.03;;;;;;;;;;5042975;28;20052;-84
2023/01/12 05:36:44;;;;;;;8.85;2.20;;;;;;;;;;5029595;28;20075;-83
2023/01/12 05:39:10;;;;;;;7.13;1.85;;;;;;;;;;5029640;28;20101;-82
2023/01/12 05:41:36;;;;;;;8.32;2.20;;;;;;;;;;5060049;28;20469;-83
2023/01/12 05:44:02;;;;;;;9.80;2.15;;;;;;;;;;5045612;28;20378;-82
2023/01/12 05:46:30;;;;;;;6.78;2.28;;;;;;;;;;5058466;28;20100;-82
2023/01/12 05:48:57;;;;;;;8.05;2.13;;;;;;;;;;5055767;28;20040;-82
2023/01/12 05:51:24;;;;;;;8.90;1.98;;;;;;;;;;5050683;28;20489;-82
2023/01/12 05:53:50;;;;;;;7.88;1.90;;;;;;;;;;5048122;28;20495;-82
2023/01/12 05:56:21;;;;;;;6.78;2.40;;;;;;;;;;5047258;28;20036;-82
2023/01/12 05:58:51;;;;;;;7.68;2.17;;;;;;;;;;5047732;28;20460;-82
2023/01/12 06:01:17;;;;;;;4.95;2.05;;;;;;;;;;5044542;28;20047;-81
2023/01/12 06:03:43;;;;;;;4.97;1.80;;;;;;;;;;5046528;28;20047;-81
2023/01/12 06:06:09;;;;;;;3.97;1.92;;;;;;;;;;5058674;28;20028;-81
2023/01/12 06:08:36;;;;;;;3.55;2.08;;;;;;;;;;5072191;28;20129;-82
2023/01/12 06:11:02;;;;;;;5.25;2.28;;;;;;;;;;5081702;28;20048;-82
2023/01/12 06:16:13;;;;;;;5.13;2.00;;;;;;;;;;5073200;28;20055;-79
2023/01/12 06:18:39;;;;;;;8.70;1.05;;;;;;;;;;5044835;28;20040;-84
2023/01/12 06:21:07;;;;;;;4.07;1.35;;;;;;;;;;5033826;28;20049;-82
2023/01/12 06:23:33;;;;;;;4.45;1.73;;;;;;;;;;5042813;28;20398;-83
2023/01/12 06:26:00;;;;;;;5.95;1.63;;;;;;;;;;5042210;28;20055;-84
2023/01/12 06:28:26;;;;;;;6.95;1.70;;;;;;;;;;5050596;28;20036;-83
2023/01/12 06:30:59;;;;;;;2.85;1.48;;;;;;;;;;5040302;28;20037;-83
2023/01/12 06:33:26;;;;;;;3.83;1.63;;;;;;;;;;5067832;28;20047;-82
2023/01/12 06:35:53;;;;;;;3.60;1.65;;;;;;;;;;5045902;28;20078;-83
2023/01/12 06:38:19;;;;;;;4.93;1.52;;;;;;;;;;5064497;28;20830;-83
2023/01/12 06:40:45;;;;;;;3.67;1.55;;;;;;;;;;5063956;28;20047;-81
2023/01/12 06:43:12;;;;;;;2.55;1.40;;;;;;;;;;5066667;28;20511;-82
2023/01/12 06:45:38;;;;;;;2.92;0.90;;;;;;;;;;5061415;28;20044;-83
2023/01/12 06:48:04;;;;;;;3.63;1.33;;;;;;;;;;5060554;28;20115;-83
2023/01/12 06:50:31;;;;;;;4.40;2.00;;;;;;;;;;5029160;28;20036;-83
2023/01/12 06:53:01;;;;;;;2.45;1.10;;;;;;;;;;5047397;28;20055;-83
2023/01/12 06:55:28;;;;;;;5.45;1.45;;;;;;;;;;5043268;28;20062;-83
2023/01/12 06:57:54;;;;;;;4.72;1.55;;;;;;;;;;5044757;28;20044;-84
2023/01/12 07:00:20;;;;;;;3.08;1.20;;;;;;;;;;5058293;28;20047;-83
2023/01/12 07:02:50;;;;;;;1.40;0.90;;;;;;;;;;5054883;28;20037;-83
2023/01/12 07:05:19;;;;;;;1.27;1.00;;;;;;;;;;5054862;28;20055;-84
2023/01/12 07:07:45;;;;;;;1.10;1.00;;;;;;;;;;5061749;28;20105;-83
2023/01/12 07:10:11;;;;;;;3.10;1.08;;;;;;;;;;5057447;28;22386;-83
2023/01/12 07:12:38;;;;;;;2.60;1.00;;;;;;;;;;5041646;28;20059;-83
2023/01/12 07:15:04;;;;;;;2.00;1.33;;;;;;;;;;5057983;28;20086;-84
2023/01/12 07:17:30;;;;;;;1.38;0.85;;;;;;;;;;5064815;28;20032;-83
2023/01/12 07:19:56;;;;;;;0.65;0.65;;;;;;;;;;5024527;28;20039;-83
2023/01/12 07:22:22;;;;;;;2.70;0.93;;;;;;;;;;5056771;28;20050;-83
2023/01/12 07:24:48;;;;;;;3.15;1.48;;;;;;;;;;5049224;28;20045;-83
2023/01/12 07:27:15;;;;;;;2.05;1.20;;;;;;;;;;5041605;28;20605;-82
2023/01/12 07:29:41;;;;;;;3.80;2.03;;;;;;;;;;5056513;28;20087;-83
2023/01/12 07:32:08;;;;;;;2.70;1.58;;;;;;;;;;5043472;28;20176;-82
2023/01/12 07:34:34;;;;;;;2.60;1.42;;;;;;;;;;5062555;28;20125;-82
2023/01/12 07:37:00;;;;;;;8.55;2.67;;;;;;;;;;5040248;28;20072;-81
2023/01/12 07:39:27;;;;;;;7.82;3.17;;;;;;;;;;5046647;28;20040;-81
2023/01/12 07:44:40;;;;;;;5.63;2.13;;;;;;;;;;5083678;28;20117;-82
2023/01/12 07:47:08;;;;;;;7.82;3.00;;;;;;;;;;5101391;28;20280;-83
2023/01/12 07:49:34;;;;;;;8.40;2.58;;;;;;;;;;5084684;28;20063;-83
2023/01/12 07:52:00;;;;;;;10.13;2.22;;;;;;;;;;5074016;28;20047;-82
2023/01/12 07:54:26;;;;;;;14.63;3.60;;;;;;;;;;5038942;28;20388;-82
2023/01/12 07:56:52;;;;;;;12.07;2.78;;;;;;;;;;5046844;28;20044;-81
2023/01/12 07:59:19;;;;;;;17.83;4.47;;;;;;;;;;5032039;28;20044;-81
2023/01/12 08:01:45;;;;;;;12.50;3.33;;;;;;;;;;5054868;28;20040;-81
2023/01/12 08:04:12;;;;;;;19.67;3.70;;;;;;;;;;5045780;28;20135;-81
2023/01/12 08:06:39;;;;;;;16.15;3.30;;;;;;;;;;5043108;28;20044;-80
2023/01/12 08:09:05;;;;;;;18.90;3.95;;;;;;;;;;5044146;28;20579;-80
2023/01/12 08:11:31;;;;;;;19.65;3.33;;;;;;;;;;5042559;28;20110;-79
2023/01/12 08:14:00;;;;;;;15.60;3.65;;;;;;;;;;5060150;28;20060;-80
2023/01/12 08:16:32;;;;;;;20.15;3.58;;;;;;;;;;5044418;28;20114;-80
2023/01/12 08:19:08;;;;;;;21.02;3.30;;;;;;;;;;5060939;28;20040;-80
2023/01/12 08:21:40;;;;;;;11.73;2.80;;;;;;;;;;5044029;28;20399;-80
2023/01/12 08:24:08;;;;;;;34.08;4.40;;;;;;;;;;5048739;28;20047;-79
2023/01/12 08:26:38;;;;;;;24.20;4.45;;;;;;;;;;5040896;28;20531;-80
2023/01/12 08:29:10;;;;;;;22.88;3.38;;;;;;;;;;5041273;28;20085;-80
2023/01/12 08:31:37;;;;;;;26.38;4.28;;;;;;;;;;5042665;28;20163;-81
2023/01/12 08:34:06;;;;;;;25.02;3.42;;;;;;;;;;5047059;28;20500;-80
2023/01/12 08:36:33;;;;;;;27.88;4.22;;;;;;;;;;5061385;28;20395;-80
2023/01/12 08:39:00;;;;;;;23.80;4.22;;;;;;;;;;5060523;28;20276;-81
2023/01/12 08:41:32;;;;;;;10.27;2.63;;;;;;;;;;5047124;28;20047;-81
2023/01/12 08:44:06;;;;;;;42.00;5.13;;;;;;;;;;5061562;28;20395;-82
2023/01/12 08:46:32;;;;;;;20.65;3.10;;;;;;;;;;5042183;28;20392;-82
2023/01/12 08:48:59;;;;;;;15.95;4.10;;;;;;;;;;5046611;28;20570;-80
2023/01/12 08:51:25;;;;;;;27.85;3.28;;;;;;;;;;5057099;28;20040;-79
2023/01/12 08:53:51;;;;;;;21.45;3.28;;;;;;;;;;5044203;28;20155;-80
2023/01/12 08:56:17;;;;;;;25.15;4.72;;;;;;;;;;5040892;28;20048;-80
2023/01/12 08:58:43;;;;;;;19.88;2.90;;;;;;;;;;5042920;28;20040;-79
2023/01/12 09:01:11;;;;;;;15.82;3.13;;;;;;;;;;5045794;28;20496;-79
2023/01/12 09:03:38;;;;;;;8.23;2.67;;;;;;;;;;5060631;28;20178;-79
2023/01/12 09:06:16;;;;;;;13.57;2.67;;;;;;;;;;5027305;28;20172;-79
2023/01/12 09:08:43;;;;;;;14.65;2.70;;;;;;;;;;5043889;28;20093;-79
2023/01/12 09:11:09;;;;;;;18.60;3.58;;;;;;;;;;5061177;28;20105;-79
2023/01/12 09:13:36;;;;;;;28.42;4.13;;;;;;;;;;5059294;28;20055;-80
2023/01/12 09:16:03;;;;;;;23.42;3.35;;;;;;;;;;5082935;28;20083;-80
2023/01/12 09:18:55;;;;;;;24.10;3.53;;;;;;;;;;5055159;28;20037;-80
2023/01/12 09:21:22;;;;;;;17.25;3.70;;;;;;;;;;5081903;28;20044;-81
2023/01/12 09:23:49;;;;;;;15.20;2.08;;;;;;;;;;5077772;28;20036;-81
2023/01/12 09:26:16;;;;;;;24.58;3.60;;;;;;;;;;5092257;28;20043;-79
2023/01/12 09:28:45;;;;;;;20.05;3.80;;;;;;;;;;5090353;28;20119;-79
2023/01/12 09:31:13;;;;;;;19.45;3.00;;;;;;;;;;5054211;28;20077;-80
2023/01/12 09:33:40;;;;;;;16.30;3.55;;;;;;;;;;5085828;28;20058;-82
2023/01/12 09:36:13;;;;;;;16.45;2.65;;;;;;;;;;5060669;28;20496;-82
2023/01/12 09:38:43;;;;;;;17.15;2.88;;;;;;;;;;5071769;28;20037;-80
2023/01/12 09:41:11;;;;;;;8.10;1.63;;;;;;;;;;5069239;28;20035;-82
2023/01/12 09:49:08;;;;;;;19.88;3.08;;;;;;;;;;5069620;28;20120;-81
2023/01/12 09:51:42;;;;;;;19.17;3.33;;;;;;;;;;5055613;28;20044;-82
2023/01/12 09:54:11;;;;;;;19.00;3.15;;;;;;;;;;5062095;28;20137;-81
2023/01/12 09:56:51;;;;;;;17.42;2.90;;;;;;;;;;5055995;28;20040;-80
2023/01/12 09:59:20;;;;;;;11.38;2.35;;;;;;;;;;5066629;28;20102;-80
2023/01/12 10:01:47;;;;;;;23.67;3.33;;;;;;;;;;5068216;28;20055;-81
2023/01/12 10:04:23;;;;;;;24.15;3.55;;;;;;;;;;5052308;28;20480;-82
2023/01/12 10:06:52;;;;;;;24.33;3.47;;;;;;;;;;5056642;28;20496;-83
2023/01/12 10:09:21;;;;;;;24.70;3.03;;;;;;;;;;5068036;28;20044;-82
2023/01/12 10:11:53;;;;;;;17.98;2.60;;;;;;;;;;5067497;28;20116;-82
2023/01/12 10:14:22;;;;;;;16.77;3.30;;;;;;;;;;5054795;28;20044;-81
2023/01/12 10:16:55;;;;;;;15.98;3.28;;;;;;;;;;5056500;28;20096;-81
2023/01/12 10:19:40;;;;;;;26.95;4.10;;;;;;;;;;5067329;28;20060;-82
2023/01/12 10:22:16;;;;;;;21.15;4.25;;;;;;;;;;5066327;28;20146;-83
2023/01/12 10:25:03;;;;;;;21.17;3.67;;;;;;;;;;5066496;28;20048;-83
2023/01/12 10:27:31;;;;;;;21.05;3.25;;;;;;;;;;5053975;28;20044;-82
2023/01/12 10:30:01;;;;;;;20.58;2.83;;;;;;;;;;5063542;28;21525;-83
2023/01/12 10:32:27;;;;;;;17.00;3.58;;;;;;;;;;5055884;28;20513;-82
2023/01/12 10:34:53;;;;;;;34.25;4.35;;;;;;;;;;5074997;28;20051;-83
2023/01/12 10:37:27;;;;;;;15.57;2.13;;;;;;;;;;5069780;28;20110;-81
2023/01/12 10:39:53;;;;;;;20.67;4.47;;;;;;;;;;5054910;28;20044;-81
2023/01/12 10:45:14;;;;;;;20.83;3.15;;;;;;;;;;5068014;28;20455;-82
2023/01/12 10:47:41;;;;;;;20.23;2.50;;;;;;;;;;5050075;28;20062;-82
2023/01/12 10:50:21;;;;;;;23.23;3.30;;;;;;;;;;5049424;28;20040;-80
2023/01/12 10:52:49;;;;;;;18.30;2.95;;;;;;;;;;5070101;28;20044;-82
2023/01/12 10:55:19;;;;;;;20.30;3.15;;;;;;;;;;5050315;28;20095;-81
2023/01/12 10:57:46;;;;;;;19.63;4.35;;;;;;;;;;5067562;28;20040;-83
2023/01/12 11:00:31;;;;;;;17.58;2.53;;;;;;;;;;5090797;28;20117;-81
2023/01/12 11:03:03;;;;;;;16.38;2.78;;;;;;;;;;5087601;28;20032;-81
2023/01/12 11:05:35;;;;;;;19.23;2.92;;;;;;;;;;5077893;28;20588;-80
2023/01/12 11:08:01;;;;;;;24.77;3.72;;;;;;;;;;5072093;28;20097;-81
2023/01/12 11:10:29;;;;;;;16.75;2.60;;;;;;;;;;5090362;28;20079;-80
2023/01/12 11:13:02;;;;;;;19.27;3.03;;;;;;;;;;5023864;28;1148431;-80
2023/01/12 11:15:29;;;;;;;15.05;2.13;;;;;;;;;;5065212;28;20047;-80
2023/01/12 11:18:06;;;;;;;21.02;2.75;;;;;;;;;;5051308;28;20622;-80
2023/01/12 11:20:50;;;;;;;15.27;2.90;;;;;;;;;;5062971;28;20092;-79
2023/01/12 11:23:35;;;;;;;17.58;2.42;;;;;;;;;;5052149;28;20037;-80
2023/01/12 11:26:02;;;;;;;13.45;2.53;;;;;;;;;;5054250;28;20069;-80
2023/01/12 11:28:37;;;;;;;14.05;2.83;;;;;;;;;;5046758;28;20049;-80
2023/01/12 11:31:03;;;;;;;14.93;3.50;;;;;;;;;;5048429;28;20046;-80
2023/01/12 11:33:33;;;;;;;26.70;4.82;;;;;;;;;;5064774;28;20500;-80
2023/01/12 11:36:06;;;;;;;25.80;3.40;;;;;;;;;;5053406;28;20036;-80
2023/01/12 11:38:36;;;;;;;15.38;3.22;;;;;;;;;;5045331;28;20094;-80
2023/01/12 11:41:06;;;;;;;16.00;3.30;;;;;;;;;;5062322;28;20062;-80
2023/01/12 11:43:57;;;;;;;13.27;2.60;;;;;;;;;;5060537;28;21875;-80
2023/01/12 11:46:27;;;;;;;15.02;2.28;;;;;;;;;;5062094;28;20044;-80
2023/01/12 11:49:10;;;;;;;21.00;3.95;;;;;;;;;;5061626;28;20358;-79
2023/01/12 11:51:39;;;;;;;22.05;3.47;;;;;;;;;;5060843;28;20255;-78
2023/01/12 11:54:06;;;;;;;17.08;2.03;;;;;;;;;;5058760;28;20039;-80
2023/01/12 11:56:51;;;;;;;14.40;2.70;;;;;;;;;;5062696;28;20044;-80
2023/01/12 11:59:36;;;;;;;13.95;2.72;;;;;;;;;;5059011;28;20050;-79
2023/01/12 12:02:21;;;;;;;15.38;2.92;;;;;;;;;;5044117;28;20593;-79
2023/01/12 12:05:10;;;;;;;12.93;2.75;;;;;;;;;;5044821;28;20051;-80
2023/01/12 12:07:49;;;;;;;10.82;2.22;;;;;;;;;;5046768;28;20097;-80
2023/01/12 12:10:21;;;;;;;13.13;1.95;;;;;;;;;;5049829;28;20044;-79
2023/01/12 12:13:07;;;;;;;11.07;2.92;;;;;;;;;;5047391;28;20093;-79
2023/01/12 12:15:36;;;;;;;11.98;1.63;;;;;;;;;;5059702;28;20059;-78
2023/01/12 12:18:05;;;;;;;9.30;2.22;;;;;;;;;;5058590;28;20560;-79
2023/01/12 12:20:38;;;;;;;9.18;1.60;;;;;;;;;;5044706;28;20129;-80
2023/01/12 12:23:17;;;;;;;9.18;1.90;;;;;;;;;;5046033;28;20047;-80
2023/01/12 12:25:54;;;;;;;10.15;2.17;;;;;;;;;;5042431;28;20135;-78
2023/01/12 12:28:47;;;;;;;15.27;3.75;;;;;;;;;;5047638;28;20587;-80
2023/01/12 12:31:32;;;;;;;10.70;2.20;;;;;;;;;;5033405;28;20862;-80
2023/01/12 12:34:06;;;;;;;10.18;2.50;;;;;;;;;;5043035;28;20040;-81
2023/01/12 12:36:32;;;;;;;19.10;2.92;;;;;;;;;;5059272;28;20046;-82
2023/01/12 12:39:14;;;;;;;12.95;2.60;;;;;;;;;;5047720;28;20036;-82
2023/01/12 12:47:39;;;;;;;19.95;3.35;;;;;;;;;;5070749;28;20127;-84
2023/01/12 12:50:12;;;;;;;15.18;3.20;;;;;;;;;;5084245;28;20086;-82
2023/01/12 12:52:38;;;;;;;19.15;3.45;;;;;;;;;;5073891;28;20079;-82
2023/01/12 12:55:06;;;;;;;14.20;2.45;;;;;;;;;;5091482;28;20301;-82
2023/01/12 12:57:55;;;;;;;17.65;3.00;;;;;;;;;;5066699;28;20381;-82
2023/01/12 13:00:29;;;;;;;12.20;2.70;;;;;;;;;;5063853;28;20120;-81
2023/01/12 13:02:57;;;;;;;15.35;2.40;;;;;;;;;;5075332;28;20051;-82
2023/01/12 13:05:40;;;;;;;13.55;2.22;;;;;;;;;;5062461;28;20048;-81
2023/01/12 13:08:16;;;;;;;15.73;2.45;;;;;;;;;;5069377;28;20391;-81
2023/01/12 13:10:47;;;;;;;14.23;2.78;;;;;;;;;;5048798;28;20564;-81
2023/01/12 13:13:25;;;;;;;8.63;1.60;;;;;;;;;;5063806;28;20055;-81
2023/01/12 13:16:11;;;;;;;14.10;2.30;;;;;;;;;;5047835;28;20115;-81
2023/01/12 13:19:02;;;;;;;10.90;1.90;;;;;;;;;;5046134;28;21303;-80
2023/01/12 13:21:30;;;;;;;16.35;3.55;;;;;;;;;;5059273;28;20101;-81
2023/01/12 13:24:08;;;;;;;17.17;2.85;;;;;;;;;;5061068;28;20048;-80
2023/01/12 13:26:34;;;;;;;12.50;2.10;;;;;;;;;;5060680;28;20036;-80
2023/01/12 13:29:22;;;;;;;14.55;2.13;;;;;;;;;;5063285;28;20067;-80
2023/01/12 13:32:11;;;;;;;15.60;2.85;;;;;;;;;;5063787;28;20040;-79
2023/01/12 13:34:43;;;;;;;16.40;2.78;;;;;;;;;;5031776;28;20150;-78
2023/01/12 13:37:09;;;;;;;15.48;3.10;;;;;;;;;;5060808;28;20053;-80
2023/01/12 13:39:37;;;;;;;20.63;3.22;;;;;;;;;;5060105;28;20045;-80
2023/01/12 13:44:52;;;;;;;19.08;3.60;;;;;;;;;;5059111;28;20085;-80
2023/01/12 13:47:26;;;;;;;24.55;3.55;;;;;;;;;;5046147;28;20059;-79
2023/01/12 13:49:59;;;;;;;19.05;2.97;;;;;;;;;;5042429;28;20037;-79
2023/01/12 13:52:29;;;;;;;21.92;3.65;;;;;;;;;;5059370;28;20115;-80
2023/01/12 13:54:55;;;;;;;19.45;3.05;;;;;;;;;;5047318;28;20051;-80
2023/01/12 13:57:22;;;;;;;25.42;3.47;;;;;;;;;;5044411;28;20073;-79
2023/01/12 14:00:08;;;;;;;22.35;3.90;;;;;;;;;;5042613;28;20044;-79
2023/01/12 14:02:34;;;;;;;23.23;3.28;;;;;;;;;;5046599;28;20067;-79
2023/01/12 14:05:07;;;;;;;25.17;3.72;;;;;;;;;;5043648;28;20029;-79
2023/01/12 14:07:33;;;;;;;19.65;3.80;;;;;;;;;;5058074;28;20134;-79
2023/01/12 14:10:03;;;;;;;23.75;3.40;;;;;;;;;;5048558;28;20718;-78
2023/01/12 14:12:42;;;;;;;17.00;2.97;;;;;;;;;;5058552;28;20043;-79
2023/01/12 14:18:11;;;;;;;26.15;3.45;;;;;;;;;;5057986;28;20062;-79
2023/01/12 14:20:50;;;;;;;18.70;4.20;;;;;;;;;;5045139;28;20405;-79
2023/01/12 14:23:26;;;;;;;20.90;3.45;;;;;;;;;;5039406;28;20043;-79
2023/01/12 14:26:12;;;;;;;18.88;4.05;;;;;;;;;;5041886;28;20036;-79
2023/01/12 14:28:43;;;;;;;23.27;4.72;;;;;;;;;;5048076;28;20395;-79
2023/01/12 14:31:26;;;;;;;17.88;2.53;;;;;;;;;;5064752;28;20040;-78
2023/01/12 14:33:57;;;;;;;21.33;2.83;;;;;;;;;;5076154;28;20048;-78
2023/01/12 14:36:49;;;;;;;19.00;3.47;;;;;;;;;;5071314;28;20063;-78
2023/01/12 14:39:19;;;;;;;22.45;3.67;;;;;;;;;;5070631;28;20052;-78
2023/01/12 14:47:29;;;;;;;17.02;3.47;;;;;;;;;;5058574;28;20075;-79
2023/01/12 14:49:55;;;;;;;20.90;3.40;;;;;;;;;;5043596;28;20040;-79
2023/01/12 14:52:41;;;;;;;15.95;3.33;;;;;;;;;;5040067;28;20054;-79
2023/01/12 14:55:17;;;;;;;22.30;4.35;;;;;;;;;;5057649;28;20181;-79
2023/01/12 14:57:47;;;;;;;23.98;3.50;;;;;;;;;;5061834;28;20060;-79
2023/01/12 15:00:30;;;;;;;23.65;3.78;;;;;;;;;;5048586;28;20607;-79
2023/01/12 15:02:58;;;;;;;33.10;4.32;;;;;;;;;;5039904;28;20126;-79
2023/01/12 15:05:25;;;;;;;21.98;3.70;;;;;;;;;;5052773;28;20622;-77
2023/01/12 15:08:06;;;;;;;20.65;3.92;;;;;;;;;;5052440;28;20500;-78
2023/01/12 15:10:41;;;;;;;24.40;4.28;;;;;;;;;;5054123;28;20055;-78
2023/01/12 15:13:26;;;;;;;29.60;4.80;;;;;;;;;;5042276;28;20040;-77
2023/01/12 15:27:06;;;;;;;37.45;6.97;;;;;;;;;;5047026;28;20131;-78
2023/01/12 15:29:32;;;;;;;30.55;7.10;;;;;;;;;;5046834;28;20186;-78
2023/01/12 15:31:59;;;;;;;32.55;6.70;;;;;;;;;;5053298;28;20044;-78
2023/01/12 15:34:25;;;;;;;22.38;5.75;;;;;;;;;;5051539;28;20459;-79
2023/01/12 15:36:54;;;;;;;34.28;7.45;;;;;;;;;;5049930;28;20052;-77
2023/01/12 15:39:20;;;;;;;22.48;6.28;;;;;;;;;;5051328;28;20044;-78
2023/01/12 15:44:31;;;;;;;23.52;7.10;;;;;;;;;;5038338;28;20407;-78
2023/01/12 15:46:57;;;;;;;22.67;6.95;;;;;;;;;;5023409;28;20110;-79
2023/01/12 15:49:23;;;;;;;17.83;6.63;;;;;;;;;;5053514;28;20048;-79
2023/01/12 15:51:49;;;;;;;16.88;4.65;;;;;;;;;;5051537;28;20045;-79
2023/01/12 15:54:17;;;;;;;16.92;6.13;;;;;;;;;;5050184;28;20738;-79